Time;durP1;ratioP1;P1;durP2;ratioP2;P2;SDS_P1;SDS_P2;PMS_P1;PMS_P2;Temp;Humidity;BMP_temperature;BMP_pressure;BME280_temperature;BME280_humidity;BME280_pressure;Samples;Min_cycle;Max_cycle;Signal;HPM_P1;HPM_P2
2023/05/20 00:00:08;;;;;;;26.08;19.45;;;22.90;49.70;;;;;;5039247;28;20330;-69
2023/05/20 00:02:34;;;;;;;27.38;20.20;;;22.80;49.60;;;;;;5038667;28;20405;-68
2023/05/20 00:04:59;;;;;;;26.05;19.27;;;22.80;49.70;;;;;;5038815;28;20109;-69
2023/05/20 00:07:25;;;;;;;29.05;20.02;;;22.80;49.60;;;;;;5038552;28;20087;-68
2023/05/20 00:09:51;;;;;;;26.75;18.70;;;22.80;49.70;;;;;;5038383;28;20100;-69
2023/05/20 00:12:16;;;;;;;26.15;18.77;;;22.80;49.70;;;;;;5037469;28;20021;-69
2023/05/20 00:14:42;;;;;;;28.48;19.33;;;22.80;49.70;;;;;;5040784;28;20560;-69
2023/05/20 00:17:08;;;;;;;26.55;19.25;;;22.80;49.70;;;;;;5040562;28;20737;-69
2023/05/20 00:19:33;;;;;;;27.35;18.67;;;22.80;49.70;;;;;;5039405;28;20039;-69
2023/05/20 00:21:59;;;;;;;26.48;18.95;;;22.80;49.70;;;;;;5038995;28;20037;-69
2023/05/20 00:24:26;;;;;;;24.45;18.42;;;22.70;49.70;;;;;;5038539;28;20143;-68
2023/05/20 00:26:52;;;;;;;26.50;19.10;;;22.70;49.70;;;;;;5039544;28;20131;-68
2023/05/20 00:29:20;;;;;;;25.80;18.63;;;22.70;49.70;;;;;;5037404;28;20116;-69
2023/05/20 00:31:46;;;;;;;25.23;18.88;;;22.70;49.70;;;;;;5039560;28;20500;-69
2023/05/20 00:34:11;;;;;;;25.02;18.67;;;22.70;49.70;;;;;;5039664;28;20022;-69
2023/05/20 00:36:37;;;;;;;26.27;18.90;;;22.70;50.20;;;;;;5038600;28;20037;-69
2023/05/20 00:39:03;;;;;;;26.27;18.60;;;22.70;49.70;;;;;;5037559;28;20040;-69
2023/05/20 00:41:29;;;;;;;24.70;18.60;;;22.70;49.70;;;;;;5035494;28;20148;-69
2023/05/20 00:43:55;;;;;;;24.42;17.88;;;22.70;49.70;;;;;;5035797;28;20469;-69
2023/05/20 00:46:22;;;;;;;25.52;18.50;;;22.70;49.70;;;;;;5037842;28;20037;-68
2023/05/20 00:48:49;;;;;;;26.05;18.95;;;22.60;49.70;;;;;;5037964;28;20401;-69
2023/05/20 00:51:15;;;;;;;25.25;17.70;;;22.60;49.70;;;;;;5039831;28;20028;-69
2023/05/20 00:53:42;;;;;;;25.55;18.52;;;22.60;49.70;;;;;;5037105;28;20021;-70
2023/05/20 00:56:08;;;;;;;25.00;17.63;;;22.60;49.70;;;;;;5038489;28;20033;-69
2023/05/20 00:58:35;;;;;;;27.08;18.80;;;22.60;49.70;;;;;;5034588;28;20560;-69
2023/05/20 01:01:01;;;;;;;23.17;17.00;;;22.60;49.80;;;;;;5038288;28;20060;-69
2023/05/20 01:03:28;;;;;;;25.15;18.17;;;22.60;49.70;;;;;;5038064;28;20021;-69
2023/05/20 01:05:54;;;;;;;23.98;17.75;;;22.60;49.80;;;;;;5036273;28;20488;-68
2023/05/20 01:08:24;;;;;;;24.27;17.73;;;22.60;49.70;;;;;;5036065;28;20036;-70
2023/05/20 01:11:27;;;;;;;24.00;17.48;;;22.60;49.80;;;;;;5036683;28;20481;-69
2023/05/20 01:13:56;;;;;;;24.20;17.52;;;22.50;49.80;;;;;;5036780;28;20049;-69
2023/05/20 01:16:23;;;;;;;23.77;17.30;;;22.60;49.80;;;;;;5036374;28;20063;-69
2023/05/20 01:18:54;;;;;;;24.20;17.50;;;22.50;49.80;;;;;;5037195;28;20029;-69
2023/05/20 01:21:20;;;;;;;23.95;17.40;;;22.50;49.80;;;;;;5036572;28;20505;-64
2023/05/20 01:23:47;;;;;;;24.25;18.10;;;22.50;49.80;;;;;;5038079;28;20025;-69
2023/05/20 01:26:12;;;;;;;23.35;17.20;;;22.50;49.80;;;;;;5044450;28;20410;-68
2023/05/20 01:28:38;;;;;;;22.50;16.67;;;22.50;49.80;;;;;;5033984;28;20075;-69
2023/05/20 01:31:09;;;;;;;23.55;17.20;;;22.50;49.80;;;;;;5037238;28;20037;-68
2023/05/20 01:33:36;;;;;;;22.45;16.67;;;22.50;49.80;;;;;;5038328;28;20033;-69
2023/05/20 01:36:02;;;;;;;23.70;16.95;;;22.50;49.90;;;;;;5035450;28;20108;-69
2023/05/20 01:38:28;;;;;;;22.60;17.10;;;22.50;49.80;;;;;;5038626;28;20028;-68
2023/05/20 01:40:57;;;;;;;23.05;17.65;;;22.50;49.80;;;;;;5034798;28;20457;-69
2023/05/20 01:43:24;;;;;;;23.37;17.30;;;22.50;49.80;;;;;;5037494;28;20098;-69
2023/05/20 01:45:50;;;;;;;22.48;16.40;;;22.50;49.80;;;;;;5037724;28;20119;-69
2023/05/20 01:48:16;;;;;;;21.98;16.65;;;22.50;49.80;;;;;;5039870;28;20614;-69
2023/05/20 01:50:42;;;;;;;21.75;16.02;;;22.40;49.80;;;;;;5037123;28;20091;-69
2023/05/20 01:53:08;;;;;;;23.05;16.23;;;22.50;49.80;;;;;;5035194;28;20101;-68
2023/05/20 01:55:34;;;;;;;20.15;16.27;;;22.50;49.90;;;;;;5040548;28;20420;-69
2023/05/20 01:58:00;;;;;;;20.98;15.43;;;22.40;49.80;;;;;;5040466;28;20510;-68
2023/05/20 02:00:26;;;;;;;20.73;15.55;;;22.40;49.80;;;;;;5041883;28;20142;-68
2023/05/20 02:02:52;;;;;;;21.90;15.60;;;22.40;49.80;;;;;;5045777;28;20060;-69
2023/05/20 02:05:17;;;;;;;21.23;16.23;;;22.40;49.80;;;;;;5040785;28;20384;-68
2023/05/20 02:07:43;;;;;;;21.52;15.70;;;22.40;49.80;;;;;;5038565;28;20036;-68
2023/05/20 02:10:09;;;;;;;21.13;15.60;;;22.40;49.80;;;;;;5042667;28;20092;-69
2023/05/20 02:12:35;;;;;;;20.13;15.27;;;22.40;49.80;;;;;;5037928;28;20036;-69
2023/05/20 02:15:00;;;;;;;21.02;16.17;;;22.40;49.80;;;;;;5040463;28;20029;-68
2023/05/20 02:17:26;;;;;;;20.95;15.75;;;22.30;49.80;;;;;;5041149;28;20021;-69
2023/05/20 02:19:51;;;;;;;21.60;14.95;;;22.40;49.90;;;;;;5039735;28;20025;-69
2023/05/20 02:22:17;;;;;;;21.67;15.85;;;22.30;49.80;;;;;;5040029;28;20025;-69
2023/05/20 02:24:43;;;;;;;20.67;15.98;;;22.30;49.80;;;;;;5040637;28;20032;-69
2023/05/20 02:27:09;;;;;;;20.27;14.80;;;22.30;49.80;;;;;;5040050;28;20025;-67
2023/05/20 02:29:35;;;;;;;20.98;15.55;;;22.30;50.30;;;;;;5035947;28;20041;-67
2023/05/20 02:32:01;;;;;;;19.88;14.98;;;22.30;49.80;;;;;;5042346;28;20048;-69
2023/05/20 02:34:28;;;;;;;18.77;14.70;;;22.30;49.80;;;;;;5053705;28;20025;-69
2023/05/20 02:36:55;;;;;;;19.63;15.02;;;22.30;49.80;;;;;;5040617;28;20446;-70
2023/05/20 02:39:21;;;;;;;20.23;15.27;;;22.30;49.80;;;;;;5041886;28;20400;-69
2023/05/20 02:41:47;;;;;;;18.73;14.50;;;22.30;49.80;;;;;;5041936;28;20027;-70
2023/05/20 02:44:12;;;;;;;20.73;15.15;;;22.30;49.90;;;;;;5040703;28;20036;-69
2023/05/20 02:46:38;;;;;;;19.65;14.23;;;22.30;49.80;;;;;;5040767;28;20108;-68
2023/05/20 02:49:03;;;;;;;20.65;15.02;;;22.30;49.80;;;;;;5040628;28;20790;-68
2023/05/20 02:51:30;;;;;;;19.90;14.73;;;22.30;49.90;;;;;;5040600;28;20031;-69
2023/05/20 02:53:56;;;;;;;19.90;14.50;;;22.20;50.00;;;;;;5039307;28;20026;-69
2023/05/20 02:56:23;;;;;;;19.40;14.48;;;22.30;49.90;;;;;;5037967;28;20033;-68
2023/05/20 02:58:49;;;;;;;20.33;14.57;;;22.20;49.80;;;;;;5037290;28;20345;-68
2023/05/20 03:01:15;;;;;;;19.27;14.73;;;22.20;49.80;;;;;;5038586;28;20026;-68
2023/05/20 03:03:41;;;;;;;20.00;14.25;;;22.20;49.80;;;;;;5037263;28;20045;-68
2023/05/20 03:06:07;;;;;;;18.60;14.52;;;22.20;49.80;;;;;;5041764;28;20049;-69
2023/05/20 03:08:35;;;;;;;17.15;13.50;;;22.20;49.80;;;;;;5039708;28;20472;-69
2023/05/20 03:11:01;;;;;;;19.75;14.18;;;22.20;49.90;;;;;;5038716;28;20029;-70
2023/05/20 03:13:26;;;;;;;16.85;13.15;;;22.20;49.90;;;;;;5039122;28;20036;-69
2023/05/20 03:15:52;;;;;;;17.60;13.18;;;22.20;49.80;;;;;;5038985;28;20040;-69
2023/05/20 03:18:18;;;;;;;17.83;14.02;;;22.20;49.90;;;;;;5038874;28;20421;-69
2023/05/20 03:20:45;;;;;;;18.63;13.65;;;22.20;49.90;;;;;;5039444;28;20052;-69
2023/05/20 03:23:10;;;;;;;17.17;13.15;;;22.20;49.90;;;;;;5037459;28;20196;-69
2023/05/20 03:25:37;;;;;;;17.88;13.63;;;22.20;49.90;;;;;;5037916;28;20104;-69
2023/05/20 03:28:03;;;;;;;19.23;13.85;;;22.20;49.90;;;;;;5038628;28;20041;-69
2023/05/20 03:30:28;;;;;;;16.70;12.98;;;22.20;49.90;;;;;;5036856;28;20064;-69
2023/05/20 03:32:56;;;;;;;17.67;12.68;;;22.20;50.00;;;;;;5039128;28;20033;-68
2023/05/20 03:35:22;;;;;;;15.30;12.13;;;22.20;49.90;;;;;;5035798;28;20104;-69
2023/05/20 03:37:47;;;;;;;16.98;13.00;;;22.20;50.00;;;;;;5040328;28;20108;-68
2023/05/20 03:40:13;;;;;;;17.08;13.07;;;22.10;49.90;;;;;;5038482;28;20029;-69
2023/05/20 03:42:39;;;;;;;17.10;12.60;;;22.20;49.90;;;;;;5040723;28;20121;-69
2023/05/20 03:45:05;;;;;;;17.33;13.40;;;22.10;49.90;;;;;;5055474;28;20034;-68
2023/05/20 03:47:31;;;;;;;16.83;13.13;;;22.10;49.90;;;;;;5036741;28;20033;-70
2023/05/20 03:49:57;;;;;;;16.77;13.10;;;22.10;50.40;;;;;;5037648;28;20403;-69
2023/05/20 03:52:22;;;;;;;16.83;12.77;;;22.10;49.90;;;;;;5037184;28;20071;-70
2023/05/20 03:54:48;;;;;;;15.27;12.05;;;22.10;49.90;;;;;;5038322;28;20029;-69
2023/05/20 03:57:14;;;;;;;17.30;13.18;;;22.10;49.90;;;;;;5037551;28;20032;-70
2023/05/20 03:59:39;;;;;;;14.98;11.90;;;22.10;49.90;;;;;;5036157;28;20392;-69
2023/05/20 04:02:05;;;;;;;16.70;12.07;;;22.10;49.90;;;;;;5039970;28;20025;-69
2023/05/20 04:04:31;;;;;;;16.48;12.50;;;22.10;50.00;;;;;;5039619;28;20037;-69
2023/05/20 04:06:59;;;;;;;15.95;12.45;;;22.10;50.00;;;;;;5038943;28;20025;-69
2023/05/20 04:09:25;;;;;;;16.05;12.43;;;22.10;50.00;;;;;;5038466;28;20044;-69
2023/05/20 04:11:51;;;;;;;16.20;12.13;;;22.10;50.00;;;;;;5039001;28;20535;-70
2023/05/20 04:14:17;;;;;;;16.88;12.63;;;22.10;50.00;;;;;;5038473;28;20021;-69
2023/05/20 04:16:43;;;;;;;14.88;11.48;;;22.10;50.00;;;;;;5037664;28;20108;-69
2023/05/20 04:19:09;;;;;;;16.23;12.25;;;22.10;50.00;;;;;;5037780;28;20029;-69
2023/05/20 04:21:35;;;;;;;16.08;12.93;;;22.10;50.00;;;;;;5040111;28;20028;-69
2023/05/20 04:24:01;;;;;;;14.95;11.85;;;22.10;50.00;;;;;;5037688;28;20026;-70
2023/05/20 04:26:27;;;;;;;14.93;11.75;;;22.00;50.00;;;;;;5037265;28;20436;-69
2023/05/20 04:28:54;;;;;;;16.27;12.63;;;22.00;50.00;;;;;;5037481;28;20496;-69
2023/05/20 04:31:25;;;;;;;15.02;11.90;;;22.10;50.10;;;;;;5038329;28;20026;-69
2023/05/20 04:33:51;;;;;;;15.02;11.45;;;22.00;50.00;;;;;;5038833;28;20017;-69
2023/05/20 04:36:17;;;;;;;13.07;10.43;;;22.00;50.10;;;;;;5038490;28;20161;-70
2023/05/20 04:38:43;;;;;;;15.38;10.82;;;22.00;50.10;;;;;;5036695;28;20125;-70
2023/05/20 04:41:09;;;;;;;14.48;10.68;;;22.00;50.10;;;;;;5039588;28;20028;-69
2023/05/20 04:43:37;;;;;;;13.43;10.57;;;22.00;50.10;;;;;;5036611;28;20018;-69
2023/05/20 04:46:06;;;;;;;14.20;11.07;;;22.00;50.10;;;;;;5034324;28;20024;-69
2023/05/20 04:48:32;;;;;;;13.00;10.60;;;22.00;50.10;;;;;;5039073;28;20440;-70
2023/05/20 04:50:58;;;;;;;14.23;10.63;;;22.00;50.10;;;;;;5038848;28;20044;-69
2023/05/20 04:53:24;;;;;;;14.05;10.82;;;22.00;50.10;;;;;;5039118;28;20041;-69
2023/05/20 04:55:55;;;;;;;13.60;10.65;;;22.00;50.10;;;;;;5038149;28;20029;-69
2023/05/20 04:58:24;;;;;;;14.48;10.75;;;22.00;50.10;;;;;;5037200;28;20029;-69
2023/05/20 05:00:50;;;;;;;14.27;10.55;;;22.00;50.10;;;;;;5034808;28;20505;-69
2023/05/20 05:03:16;;;;;;;13.45;10.98;;;22.00;50.10;;;;;;5035479;28;20072;-69
2023/05/20 05:05:42;;;;;;;12.57;10.18;;;22.00;50.10;;;;;;5038534;28;20057;-69
2023/05/20 05:08:10;;;;;;;14.23;10.85;;;22.00;50.10;;;;;;5035691;28;20104;-69
2023/05/20 05:10:36;;;;;;;13.85;11.27;;;22.00;50.10;;;;;;5037942;28;20079;-69
2023/05/20 05:13:02;;;;;;;14.85;11.15;;;22.00;50.10;;;;;;5036940;28;20384;-69
2023/05/20 05:15:28;;;;;;;13.13;10.43;;;22.00;50.10;;;;;;5034746;28;20040;-69
2023/05/20 05:17:54;;;;;;;14.50;11.05;;;22.00;50.10;;;;;;5035820;28;20049;-69
2023/05/20 05:20:20;;;;;;;14.85;11.27;;;22.00;50.10;;;;;;5037255;28;20550;-69
2023/05/20 05:22:46;;;;;;;14.15;9.98;;;22.00;50.10;;;;;;5038626;28;20021;-69
2023/05/20 05:25:12;;;;;;;13.50;10.65;;;22.00;50.10;;;;;;5037513;28;20687;-69
2023/05/20 05:27:38;;;;;;;13.23;10.30;;;21.90;50.10;;;;;;5037903;28;20044;-69
2023/05/20 05:30:05;;;;;;;14.07;11.00;;;21.90;50.10;;;;;;5037213;28;20512;-69
2023/05/20 05:32:31;;;;;;;13.70;10.38;;;21.90;50.10;;;;;;5048361;28;20064;-69
2023/05/20 05:34:56;;;;;;;13.77;10.63;;;21.90;50.10;;;;;;5042250;28;20065;-69
2023/05/20 05:37:22;;;;;;;14.18;10.25;;;21.90;50.10;;;;;;5040542;28;20033;-69
2023/05/20 05:39:48;;;;;;;14.20;10.90;;;21.90;50.10;;;;;;5039473;28;20078;-69
2023/05/20 05:42:14;;;;;;;12.13;10.05;;;21.90;50.10;;;;;;5041039;28;20025;-69
2023/05/20 05:44:39;;;;;;;12.43;9.80;;;21.90;50.10;;;;;;5039804;28;20116;-69
2023/05/20 05:47:06;;;;;;;12.80;10.55;;;21.90;50.10;;;;;;5041417;28;20442;-69
2023/05/20 05:49:32;;;;;;;13.27;10.20;;;21.80;50.00;;;;;;5042601;28;20374;-69
2023/05/20 05:51:58;;;;;;;12.27;9.85;;;21.90;50.10;;;;;;5036681;28;20673;-69
2023/05/20 05:54:24;;;;;;;12.40;9.57;;;21.90;50.10;;;;;;5040121;28;20017;-69
2023/05/20 05:56:53;;;;;;;12.63;10.10;;;21.90;50.10;;;;;;5041484;28;20037;-69
2023/05/20 05:59:19;;;;;;;13.65;9.95;;;21.90;50.60;;;;;;5041337;28;20026;-69
2023/05/20 06:01:45;;;;;;;13.80;10.70;;;21.90;50.10;;;;;;5040241;28;20055;-69
2023/05/20 06:04:10;;;;;;;12.13;9.32;;;21.90;50.10;;;;;;5041301;28;20091;-69
2023/05/20 06:06:36;;;;;;;13.18;10.00;;;21.90;50.10;;;;;;5040100;28;20032;-69
2023/05/20 06:09:02;;;;;;;12.40;9.75;;;21.90;50.10;;;;;;5041045;28;20033;-69
2023/05/20 06:11:28;;;;;;;12.45;9.48;;;21.90;50.10;;;;;;5042108;28;20083;-69
2023/05/20 06:13:54;;;;;;;12.90;9.55;;;21.90;50.10;;;;;;5037895;28;20133;-68
2023/05/20 06:16:19;;;;;;;11.63;9.80;;;21.90;50.10;;;;;;5039219;28;20371;-69
2023/05/20 06:18:45;;;;;;;13.20;9.70;;;21.80;50.00;;;;;;5040673;28;20037;-68
2023/05/20 06:21:11;;;;;;;13.43;10.10;;;21.90;50.10;;;;;;5040152;28;20095;-69
2023/05/20 06:23:36;;;;;;;11.80;9.23;;;21.90;50.10;;;;;;5040429;28;20104;-69
2023/05/20 06:26:02;;;;;;;11.88;9.63;;;21.90;50.10;;;;;;5039450;28;20030;-69
2023/05/20 06:28:29;;;;;;;11.25;9.25;;;21.90;50.10;;;;;;5042544;28;20021;-69
2023/05/20 06:30:55;;;;;;;12.55;9.30;;;21.80;50.60;;;;;;5040947;28;20513;-69
2023/05/20 06:33:25;;;;;;;13.27;9.88;;;21.80;50.10;;;;;;5039174;28;20040;-69
2023/05/20 06:35:51;;;;;;;12.43;9.70;;;21.80;50.10;;;;;;5038832;28;20025;-69
2023/05/20 06:38:17;;;;;;;10.07;8.88;;;21.80;50.10;;;;;;5040799;28;20458;-68
2023/05/20 06:40:43;;;;;;;12.43;9.27;;;21.80;50.10;;;;;;5037489;28;20064;-68
2023/05/20 06:43:08;;;;;;;11.50;8.45;;;21.80;50.10;;;;;;5039343;28;20029;-68
2023/05/20 06:45:34;;;;;;;12.32;9.48;;;21.80;50.20;;;;;;5038780;28;20377;-68
2023/05/20 06:47:59;;;;;;;13.15;9.50;;;21.80;50.20;;;;;;5040881;28;20026;-69
2023/05/20 06:50:27;;;;;;;11.52;9.30;;;21.80;50.20;;;;;;5040221;28;20029;-68
2023/05/20 06:52:52;;;;;;;12.18;9.15;;;21.80;50.20;;;;;;5041998;28;20037;-68
2023/05/20 06:55:18;;;;;;;12.32;9.00;;;21.80;50.20;;;;;;5038218;28;20025;-68
2023/05/20 06:57:44;;;;;;;11.35;9.38;;;21.80;50.20;;;;;;5038707;28;20024;-68
2023/05/20 07:00:10;;;;;;;12.88;9.65;;;21.80;50.20;;;;;;5038206;28;20025;-68
2023/05/20 07:02:36;;;;;;;11.25;9.02;;;21.80;50.20;;;;;;5038817;28;20481;-68
2023/05/20 07:05:02;;;;;;;10.93;8.77;;;21.80;50.20;;;;;;5036761;28;20075;-68
2023/05/20 07:07:27;;;;;;;11.95;9.30;;;21.80;50.20;;;;;;5040415;28;20029;-68
2023/05/20 07:09:53;;;;;;;11.10;8.57;;;21.80;50.20;;;;;;5039714;28;20029;-68
2023/05/20 07:12:19;;;;;;;12.07;8.60;;;21.80;50.20;;;;;;5037893;28;20033;-68
2023/05/20 07:14:45;;;;;;;11.18;8.85;;;21.80;50.20;;;;;;5037416;28;20091;-68
2023/05/20 07:17:11;;;;;;;10.73;8.95;;;21.80;50.70;;;;;;5039811;28;20606;-68
2023/05/20 07:19:37;;;;;;;10.98;8.68;;;21.80;50.20;;;;;;5035034;28;20136;-68
2023/05/20 07:22:03;;;;;;;11.20;8.77;;;21.80;50.20;;;;;;5037881;28;20100;-68
2023/05/20 07:24:28;;;;;;;10.23;7.93;;;21.80;50.20;;;;;;5037845;28;20098;-69
2023/05/20 07:26:54;;;;;;;11.40;8.98;;;21.70;50.20;;;;;;5037662;28;20024;-68
2023/05/20 07:29:20;;;;;;;11.27;8.70;;;21.70;50.20;;;;;;5040612;28;20171;-68
2023/05/20 07:31:45;;;;;;;10.88;8.35;;;21.70;50.20;;;;;;5036683;28;20053;-68
2023/05/20 07:34:11;;;;;;;10.20;8.32;;;21.70;50.20;;;;;;5038033;28;20400;-69
2023/05/20 07:36:37;;;;;;;11.10;8.60;;;21.70;50.20;;;;;;5039830;28;20125;-68
2023/05/20 07:39:03;;;;;;;10.18;8.40;;;21.70;50.20;;;;;;5040048;28;20047;-68
2023/05/20 07:41:28;;;;;;;9.63;7.47;;;21.70;50.30;;;;;;5039562;28;20045;-68
2023/05/20 07:43:54;;;;;;;8.98;7.13;;;21.70;50.30;;;;;;5038616;28;20109;-68
2023/05/20 07:46:20;;;;;;;8.43;6.93;;;21.70;50.30;;;;;;5035705;28;20029;-68
2023/05/20 07:48:45;;;;;;;9.60;7.90;;;21.70;50.30;;;;;;5038289;28;20029;-68
2023/05/20 07:51:11;;;;;;;11.27;7.80;;;21.70;50.30;;;;;;5038218;28;20025;-68
2023/05/20 07:53:37;;;;;;;9.77;7.55;;;21.70;50.30;;;;;;5032929;28;20059;-68
2023/05/20 07:56:02;;;;;;;9.88;8.23;;;21.70;50.40;;;;;;5037949;28;20412;-68
2023/05/20 07:58:30;;;;;;;9.45;7.40;;;21.70;50.30;;;;;;5039231;28;20024;-68
2023/05/20 08:00:56;;;;;;;9.57;7.47;;;21.70;50.40;;;;;;5037012;28;20029;-68
2023/05/20 08:03:22;;;;;;;8.93;7.22;;;21.70;50.40;;;;;;5036803;28;20342;-68
2023/05/20 08:05:47;;;;;;;10.13;7.45;;;21.70;50.40;;;;;;5041421;28;20060;-68
2023/05/20 08:08:13;;;;;;;9.60;7.68;;;21.70;50.40;;;;;;5039373;28;20064;-66
2023/05/20 08:10:39;;;;;;;7.95;6.55;;;21.70;50.50;;;;;;5039527;28;20055;-66
2023/05/20 08:13:04;;;;;;;9.25;7.00;;;21.70;50.50;;;;;;5039974;28;20025;-67
2023/05/20 08:15:30;;;;;;;9.40;7.20;;;21.70;50.50;;;;;;5034930;28;20043;-68
2023/05/20 08:17:56;;;;;;;9.18;7.13;;;21.70;50.40;;;;;;5033854;28;20040;-68
2023/05/20 08:20:21;;;;;;;7.60;6.38;;;21.70;50.50;;;;;;5041028;28;20025;-67
2023/05/20 08:22:47;;;;;;;7.97;6.32;;;21.70;50.50;;;;;;5039429;28;20363;-68
2023/05/20 08:25:13;;;;;;;7.97;6.38;;;21.70;50.50;;;;;;5038094;28;20061;-68
2023/05/20 08:27:40;;;;;;;6.93;5.43;;;21.70;50.50;;;;;;5038611;28;20051;-68
2023/05/20 08:30:08;;;;;;;8.00;6.10;;;21.70;50.50;;;;;;5038298;28;20049;-68
2023/05/20 08:32:35;;;;;;;7.17;5.80;;;21.70;50.50;;;;;;5034396;28;20128;-66
2023/05/20 08:35:01;;;;;;;7.00;5.47;;;21.70;50.50;;;;;;5037193;28;20037;-68
2023/05/20 08:37:27;;;;;;;7.63;5.90;;;21.70;50.50;;;;;;5036681;28;20032;-68
2023/05/20 08:39:54;;;;;;;6.45;5.30;;;21.70;50.50;;;;;;5035780;28;20116;-68
2023/05/20 08:42:23;;;;;;;7.57;5.82;;;21.70;50.50;;;;;;5035369;28;20072;-67
2023/05/20 08:44:53;;;;;;;7.22;5.13;;;21.70;50.50;;;;;;5037006;28;20036;-68
2023/05/20 08:47:21;;;;;;;6.15;5.30;;;21.70;50.50;;;;;;5037457;28;20098;-68
2023/05/20 08:49:48;;;;;;;6.78;5.22;;;21.70;50.60;;;;;;5039073;28;20107;-68
2023/05/20 08:52:16;;;;;;;6.45;5.13;;;21.70;50.60;;;;;;5036508;28;20087;-68
2023/05/20 08:54:44;;;;;;;6.35;5.20;;;21.70;50.60;;;;;;5037361;28;20104;-68
2023/05/20 08:57:12;;;;;;;6.53;5.05;;;21.70;50.60;;;;;;5035859;28;20032;-68
2023/05/20 08:59:43;;;;;;;6.18;4.80;;;21.70;50.60;;;;;;5037109;28;20040;-62
2023/05/20 09:02:10;;;;;;;6.20;4.50;;;21.70;50.60;;;;;;5036946;28;20572;-68
2023/05/20 09:04:36;;;;;;;6.55;4.80;;;21.70;50.60;;;;;;5037203;28;20029;-67
2023/05/20 09:07:02;;;;;;;6.65;5.15;;;21.70;50.70;;;;;;5039045;28;20025;-68
2023/05/20 09:09:29;;;;;;;6.40;4.70;;;21.70;50.70;;;;;;5044741;28;20026;-68
2023/05/20 09:11:54;;;;;;;5.47;4.80;;;21.70;50.70;;;;;;5036483;28;20501;-68
2023/05/20 09:14:20;;;;;;;5.10;3.95;;;21.70;50.70;;;;;;5037361;28;20036;-68
2023/05/20 09:16:47;;;;;;;6.10;4.88;;;21.70;50.70;;;;;;5035226;28;20034;-68
2023/05/20 09:19:12;;;;;;;6.00;4.88;;;21.70;50.70;;;;;;5035632;28;20903;-68
2023/05/20 09:21:40;;;;;;;5.40;4.43;;;21.70;50.70;;;;;;5038504;28;20029;-68
2023/05/20 09:24:06;;;;;;;6.13;4.75;;;21.70;50.70;;;;;;5034422;28;20158;-68
2023/05/20 09:26:32;;;;;;;5.07;4.40;;;21.70;50.70;;;;;;5039118;28;20196;-68
2023/05/20 09:28:58;;;;;;;5.75;4.30;;;21.70;50.70;;;;;;5036839;28;20025;-68
2023/05/20 09:31:29;;;;;;;5.75;4.45;;;21.70;50.70;;;;;;5033490;28;20511;-67
2023/05/20 09:33:55;;;;;;;4.85;4.00;;;21.70;50.70;;;;;;5037567;28;20033;-68
2023/05/20 09:36:22;;;;;;;5.65;4.40;;;21.70;50.70;;;;;;5034979;28;20033;-68
2023/05/20 09:38:52;;;;;;;5.68;4.20;;;21.70;50.70;;;;;;5036255;28;20455;-64
2023/05/20 09:41:22;;;;;;;5.68;4.10;;;21.70;50.80;;;;;;5037861;28;20532;-66
2023/05/20 09:43:51;;;;;;;5.35;3.97;;;21.70;50.80;;;;;;5035894;28;20025;-68
2023/05/20 09:46:17;;;;;;;4.95;3.85;;;21.70;50.80;;;;;;5036598;28;20697;-69
2023/05/20 09:48:43;;;;;;;4.95;3.92;;;21.70;50.80;;;;;;5038054;28;20044;-68
2023/05/20 09:51:10;;;;;;;5.20;4.07;;;21.70;50.80;;;;;;5037758;28;20034;-69
2023/05/20 09:53:36;;;;;;;6.20;4.00;;;21.70;50.80;;;;;;5037002;28;20346;-68
2023/05/20 09:56:02;;;;;;;4.97;3.85;;;21.70;50.80;;;;;;5037649;28;20091;-69
2023/05/20 09:58:29;;;;;;;4.85;3.85;;;21.70;50.90;;;;;;5035151;28;20481;-69
2023/05/20 10:00:54;;;;;;;5.15;3.78;;;21.70;50.80;;;;;;5036424;28;20411;-68
2023/05/20 10:03:26;;;;;;;5.63;4.00;;;21.70;50.80;;;;;;5032084;28;20026;-68
2023/05/20 10:06:21;;;;;;;5.05;3.95;;;21.70;50.80;;;;;;5036297;28;20029;-68
2023/05/20 10:09:20;;;;;;;5.50;4.05;;;21.70;50.90;;;;;;5033311;28;20049;-66
2023/05/20 10:12:03;;;;;;;;;;;21.70;50.90;;;;;;5037805;28;20034;-66
2023/05/20 10:15:03;;;;;;;4.30;3.30;;;21.70;50.90;;;;;;5034192;28;19909;-66
2023/05/20 10:17:43;;;;;;;4.85;3.30;;;21.70;50.90;;;;;;5038736;28;20061;-68
2023/05/20 10:20:10;;;;;;;4.03;3.20;;;21.70;50.90;;;;;;5039675;28;20519;-68
2023/05/20 10:22:38;;;;;;;4.82;3.72;;;21.70;50.90;;;;;;5039567;28;20100;-66
2023/05/20 10:25:06;;;;;;;4.88;3.53;;;21.70;50.90;;;;;;5042519;28;20022;-68
2023/05/20 10:27:43;;;;;;;3.97;3.08;;;21.70;51.00;;;;;;5053625;28;20467;-68
2023/05/20 10:30:15;;;;;;;4.00;3.03;;;21.70;51.00;;;;;;5037765;28;20044;-68
2023/05/20 10:32:51;;;;;;;4.00;3.03;;;21.70;51.00;;;;;;5039079;28;20037;-68
2023/05/20 10:35:27;;;;;;;4.03;3.17;;;21.70;51.00;;;;;;5042926;28;20052;-66
2023/05/20 10:37:54;;;;;;;4.38;3.50;;;21.70;51.10;;;;;;5039101;28;20078;-67
2023/05/20 10:40:21;;;;;;;3.60;2.88;;;21.80;51.20;;;;;;5041012;28;20493;-68
2023/05/20 10:42:48;;;;;;;3.50;2.60;;;21.80;51.20;;;;;;5040425;28;20477;-68
2023/05/20 10:45:28;;;;;;;3.72;2.88;;;21.80;51.20;;;;;;5040558;28;20469;-68
2023/05/20 10:47:56;;;;;;;5.80;3.50;;;21.80;51.30;;;;;;5039327;28;20092;-67
2023/05/20 10:50:27;;;;;;;4.43;3.60;;;21.80;51.20;;;;;;5037541;28;20480;-68
2023/05/20 10:52:53;;;;;;;5.07;2.78;;;21.80;51.30;;;;;;5041613;28;20377;-68
2023/05/20 10:55:20;;;;;;;3.95;2.83;;;21.90;51.30;;;;;;5041178;28;20064;-69
2023/05/20 10:57:46;;;;;;;4.32;3.40;;;21.90;51.30;;;;;;5040797;28;20115;-68
2023/05/20 11:00:12;;;;;;;3.88;3.03;;;21.90;51.40;;;;;;5039453;28;20112;-68
2023/05/20 11:02:38;;;;;;;3.80;3.05;;;21.90;51.30;;;;;;5038120;28;20476;-69
2023/05/20 11:05:05;;;;;;;3.90;2.90;;;21.90;51.20;;;;;;5040327;28;20037;-68
2023/05/20 11:07:31;;;;;;;4.70;3.10;;;21.90;51.20;;;;;;5041291;28;20060;-69
2023/05/20 11:09:57;;;;;;;4.13;2.92;;;22.00;51.20;;;;;;5037755;28;20055;-69
2023/05/20 11:12:25;;;;;;;3.80;2.85;;;22.00;51.20;;;;;;5041192;28;20331;-69
2023/05/20 11:14:51;;;;;;;4.22;2.92;;;22.00;51.20;;;;;;5040729;28;20038;-69
2023/05/20 11:17:20;;;;;;;4.10;2.95;;;22.00;51.10;;;;;;5035582;28;20369;-69
2023/05/20 11:19:47;;;;;;;4.28;2.65;;;22.00;51.10;;;;;;5038551;28;20100;-69
2023/05/20 11:22:12;;;;;;;3.53;2.70;;;22.10;51.10;;;;;;5038945;28;20539;-69
2023/05/20 11:24:38;;;;;;;3.67;2.75;;;22.10;51.10;;;;;;5037239;28;20029;-69
2023/05/20 11:27:04;;;;;;;3.67;2.67;;;22.10;51.10;;;;;;5038156;28;20025;-68
2023/05/20 11:29:31;;;;;;;3.70;2.70;;;22.10;51.00;;;;;;5038979;28;20369;-68
2023/05/20 11:31:58;;;;;;;3.55;2.85;;;22.10;51.00;;;;;;5035148;28;20018;-68
2023/05/20 11:34:23;;;;;;;4.50;2.80;;;22.10;50.90;;;;;;5039697;28;20109;-68
2023/05/20 11:36:56;;;;;;;3.60;2.85;;;22.10;50.90;;;;;;5038254;28;20115;-68
2023/05/20 11:39:22;;;;;;;3.17;2.45;;;22.20;50.90;;;;;;5040125;28;20497;-68
2023/05/20 11:41:47;;;;;;;3.90;2.75;;;22.20;50.80;;;;;;5038999;28;20037;-68
2023/05/20 11:44:13;;;;;;;4.82;2.60;;;22.20;50.80;;;;;;5040085;28;20039;-68
2023/05/20 11:46:46;;;;;;;3.72;2.35;;;22.20;50.80;;;;;;5038968;28;20450;-68
2023/05/20 11:49:15;;;;;;;3.55;2.60;;;22.20;50.70;;;;;;5034136;28;20029;-68
2023/05/20 11:51:42;;;;;;;3.35;2.63;;;22.20;50.70;;;;;;5036700;28;20497;-67
2023/05/20 11:54:09;;;;;;;3.30;2.53;;;22.20;50.70;;;;;;5036779;28;20041;-68
2023/05/20 11:56:40;;;;;;;3.15;2.55;;;22.30;50.70;;;;;;5039667;28;20519;-68
2023/05/20 11:59:07;;;;;;;3.45;2.58;;;22.30;50.70;;;;;;5040225;28;20087;-67
2023/05/20 12:01:41;;;;;;;3.35;2.58;;;22.30;50.60;;;;;;5039978;28;20040;-68
2023/05/20 12:04:12;;;;;;;3.60;2.70;;;22.30;50.60;;;;;;5037227;28;20029;-68
2023/05/20 12:06:38;;;;;;;3.30;2.72;;;22.30;50.70;;;;;;5038254;28;20104;-68
2023/05/20 12:09:06;;;;;;;3.13;2.15;;;22.30;50.60;;;;;;5040255;28;20037;-68
2023/05/20 12:11:38;;;;;;;3.28;2.40;;;22.30;50.60;;;;;;5038190;28;20033;-68
2023/05/20 12:14:04;;;;;;;4.13;2.55;;;22.30;50.50;;;;;;5037113;28;20377;-67
2023/05/20 12:16:34;;;;;;;3.20;2.47;;;22.30;50.50;;;;;;5040802;28;20037;-68
2023/05/20 12:19:00;;;;;;;3.72;2.67;;;22.30;50.50;;;;;;5037853;28;20136;-69
2023/05/20 12:21:27;;;;;;;3.47;2.45;;;22.30;50.50;;;;;;5038895;28;20438;-68
2023/05/20 12:23:56;;;;;;;3.20;2.50;;;22.30;50.50;;;;;;5038234;28;20490;-68
2023/05/20 12:26:23;;;;;;;4.43;2.83;;;22.40;50.50;;;;;;5040743;28;20031;-68
2023/05/20 12:28:49;;;;;;;3.30;2.47;;;22.40;50.50;;;;;;5037611;28;20039;-69
2023/05/20 12:31:15;;;;;;;3.65;2.35;;;22.40;50.50;;;;;;5038901;28;20037;-68
2023/05/20 12:33:41;;;;;;;3.35;2.40;;;22.40;50.50;;;;;;5037246;28;20065;-68